St Pierre — FIDX — position and weather

sailwx.info

Track history (hours):
 
Tides and Currents Weather Stations Pressure Air Temp Water Temp Dewpoint Dewpoint Depression Visibility Wind Speed Wind Dir Waves Ship Positions

St Pierre

Last reported at 2016-Jun-24 21:33 UTC. Time now 2016-Jun-24 22:16 UTC.
Position N 47°12' W 002°17'.

Length 84 m; draft 5.8 m.

Type: Cargo ship. MMSI: 228024800.

Date/timePositionNaut miles runAvg speedWind from/ knotsBaromVisibWave heightAir tempDewpointWater temp
2016-Jun-24 21:33N 47°12' W 002°17'1111.4
2016-Jun-24 20:33N 47°18' W 002°03'1212.2
2016-Jun-24 19:33N 47°13' W 001°47'6 6.1
2016-Jun-24 18:33N 47°12' W 001°38'0 0.0
2016-Jun-24 17:32N 47°12' W 001°38'4 4.4
2016-Jun-24 16:33N 47°12' W 001°44'1211.4
2016-Jun-24 15:30N 47°17' W 002°00'1111.6
2016-Jun-24 14:32N 47°14' W 002°16'10 9.8
2016-Jun-24 13:33N 47°05' W 002°21'0 0.1
2016-Jun-24 12:34N 47°05' W 002°21'0 0.1
2016-Jun-24 11:34N 47°05' W 002°21'0 0.1
2016-Jun-24 10:33N 47°05' W 002°21'8 8.4
2016-Jun-24 09:34N 47°13' W 002°17'1111.0
2016-Jun-24 08:33N 47°18' W 002°03'1212.4
2016-Jun-24 07:34N 47°12' W 001°46'3 1.0
2016-Jun-24 04:34N 47°14' W 001°50'1211.7
2016-Jun-24 03:33N 47°18' W 002°06'1312.5
2016-Jun-24 02:33N 47°09' W 002°19'3 2.6
2016-Jun-24 01:33N 47°07' W 002°21'0 0.1
2016-Jun-24 00:34N 47°07' W 002°21'0 0.0
2016-Jun-23 23:33N 47°07' W 002°21'0 0.0
2016-Jun-23 22:32N 47°07' W 002°21'0 0.0
2016-Jun-23 21:33N 47°07' W 002°21'0 0.0
2016-Jun-23 20:33N 47°07' W 002°21'2 2.1
2016-Jun-23 19:33N 47°05' W 002°21'0 0.1
2016-Jun-23 18:33N 47°05' W 002°21'0 0.2
2016-Jun-23 17:33N 47°05' W 002°21'1 1.2
2016-Jun-23 16:33N 47°06' W 002°21'0 0.3
2016-Jun-23 15:33N 47°06' W 002°20'0 0.1
2016-Jun-23 14:33N 47°06' W 002°20'1 1.2
2016-Jun-23 13:34N 47°05' W 002°21'1 0.8
2016-Jun-23 12:33N 47°06' W 002°20'0 0.0
2016-Jun-23 11:34N 47°06' W 002°20'0 0.2
2016-Jun-23 10:33N 47°06' W 002°21'0 0.3
2016-Jun-23 09:33N 47°06' W 002°20'0 0.2
2016-Jun-23 08:33N 47°06' W 002°20'10 9.6
2016-Jun-23 07:33N 47°14' W 002°15'2210.9
2016-Jun-23 05:34N 47°12' W 001°43'3 3.4
2016-Jun-23 04:34N 47°12' W 001°38'0 0.0
2016-Jun-23 03:34N 47°12' W 001°38'0 0.0
2016-Jun-23 02:34N 47°12' W 001°38'0 0.0
2016-Jun-23 01:34N 47°12' W 001°38'0 0.0
2016-Jun-23 00:33N 47°12' W 001°38'0 0.0
2016-Jun-22 23:34N 47°12' W 001°38'0 0.0
2016-Jun-22 22:33N 47°12' W 001°38'0 0.0
2016-Jun-22 21:34N 47°12' W 001°38'0 0.0
2016-Jun-22 20:34N 47°12' W 001°38'0 0.0
2016-Jun-22 19:34N 47°12' W 001°38'0 0.0
2016-Jun-22 18:34N 47°12' W 001°38'7 7.4
2016-Jun-22 17:34N 47°13' W 001°49'1111.1
2016-Jun-22 16:34N 47°18' W 002°03'1211.7
2016-Jun-22 15:33N 47°11' W 002°18'7 7.1
2016-Jun-22 14:34N 47°05' W 002°21'0 0.2
2016-Jun-22 13:33N 47°05' W 002°21'0 0.2
2016-Jun-22 12:34N 47°05' W 002°21'0 0.2
2016-Jun-22 11:34N 47°05' W 002°21'9 9.5
2016-Jun-22 10:34N 47°10' W 002°33'1212.1
2016-Jun-22 09:34N 47°16' W 002°48'1312.9
2016-Jun-22 08:33N 47°22' W 003°05'1212.3
2016-Jun-22 07:34N 47°32' W 003°15'1211.9
2016-Jun-22 06:34N 47°43' W 003°22'2 2.2
2016-Jun-22 05:34N 47°45' W 003°19'0 0.0
2016-Jun-22 04:34N 47°45' W 003°19'2 2.0
2016-Jun-22 03:34N 47°44' W 003°22'4 4.2
2016-Jun-22 02:34N 47°40' W 003°24'4 4.2
2016-Jun-22 01:34N 47°37' W 003°19'9 8.6
2016-Jun-22 00:33N 47°29' W 003°13'1010.0
2016-Jun-21 23:34N 47°22' W 003°03'1110.6
2016-Jun-21 22:33N 47°16' W 002°50'1110.7
2016-Jun-21 21:34N 47°11' W 002°36'1010.5
2016-Jun-21 20:34N 47°06' W 002°23'2 1.7
2016-Jun-21 19:34N 47°05' W 002°21'0 0.1
2016-Jun-21 18:33N 47°05' W 002°21'0 0.1
2016-Jun-21 17:33N 47°05' W 002°21'7 6.8
2016-Jun-21 16:34N 47°11' W 002°18'1111.0
2016-Jun-21 15:33N 47°18' W 002°05'10 9.8
2016-Jun-21 14:33N 47°16' W 001°51'10 9.5
2016-Jun-21 13:33N 47°11' W 001°39'1 1.4
2016-Jun-21 12:34N 47°12' W 001°37'0 0.0
2016-Jun-21 11:34N 47°12' W 001°37'0 0.0
2016-Jun-21 10:34N 47°12' W 001°37'0 0.0
2016-Jun-21 09:34N 47°12' W 001°37'0 0.0
2016-Jun-21 08:34N 47°12' W 001°37'0 0.0
2016-Jun-21 07:34N 47°12' W 001°37'0 0.0
2016-Jun-21 06:34N 47°12' W 001°37'0 0.0
2016-Jun-21 04:33N 47°12' W 001°37'0 0.0
2016-Jun-21 03:34N 47°12' W 001°37'0 0.0
2016-Jun-21 02:34N 47°12' W 001°37'0 0.0
2016-Jun-21 01:34N 47°12' W 001°37'0 0.0
2016-Jun-21 00:34N 47°12' W 001°37'0 0.0
2016-Jun-20 23:34N 47°12' W 001°37'0 0.0
2016-Jun-20 22:34N 47°12' W 001°37'0 0.0
2016-Jun-20 21:34N 47°12' W 001°37'0 0.0
2016-Jun-20 20:33N 47°12' W 001°37'0 0.0
2016-Jun-20 19:34N 47°12' W 001°37'0 0.0
2016-Jun-20 18:34N 47°12' W 001°37'0 0.0
2016-Jun-20 17:34N 47°12' W 001°37'0 0.0
2016-Jun-20 16:34N 47°12' W 001°37'0 0.0
2016-Jun-20 15:34N 47°12' W 001°37'0 0.0
2016-Jun-20 14:34N 47°12' W 001°37'0 0.0
2016-Jun-20 13:34N 47°12' W 001°37'0 0.0
2016-Jun-20 12:33N 47°12' W 001°37'0 0.0
2016-Jun-20 11:33N 47°12' W 001°37'0 0.0
2016-Jun-20 10:34N 47°12' W 001°37'0 0.0
2016-Jun-20 09:33N 47°12' W 001°37'0 0.0
2016-Jun-20 08:34N 47°12' W 001°37'0 0.0
2016-Jun-20 07:34N 47°12' W 001°37'0 0.0
2016-Jun-20 06:34N 47°12' W 001°37'0 0.0
2016-Jun-20 05:34N 47°12' W 001°37'0 0.0
2016-Jun-20 04:34N 47°12' W 001°37'0 0.0
2016-Jun-20 03:34N 47°12' W 001°37'0 0.0
2016-Jun-20 02:34N 47°12' W 001°37'0 0.0
2016-Jun-20 01:34N 47°12' W 001°37'0 0.0
2016-Jun-20 00:34N 47°12' W 001°37'0 0.0
2016-Jun-19 23:34N 47°12' W 001°37'0 0.0
2016-Jun-19 22:34N 47°12' W 001°37'0 0.0
2016-Jun-19 21:34N 47°12' W 001°37'0 0.0
2016-Jun-19 20:34N 47°12' W 001°37'0 0.0
2016-Jun-19 19:33N 47°12' W 001°37'0 0.0
2016-Jun-19 18:34N 47°12' W 001°37'0 0.0
2016-Jun-19 17:34N 47°12' W 001°37'0 0.0
2016-Jun-19 16:34N 47°12' W 001°37'0 0.0
2016-Jun-19 15:34N 47°12' W 001°37'0 0.0
2016-Jun-19 14:34N 47°12' W 001°37'0 0.0
2016-Jun-19 13:34N 47°12' W 001°37'0 0.0
2016-Jun-19 12:34N 47°12' W 001°37'0 0.0
2016-Jun-19 11:33N 47°12' W 001°37'0 0.0
2016-Jun-19 10:34N 47°12' W 001°37'0 0.0
2016-Jun-19 09:34N 47°12' W 001°37'0 0.0
2016-Jun-19 08:34N 47°12' W 001°37'0 0.0
2016-Jun-19 07:34N 47°12' W 001°37'0 0.0
2016-Jun-19 06:34N 47°12' W 001°37'0 0.0
2016-Jun-19 05:34N 47°12' W 001°37'0 0.0
2016-Jun-19 04:34N 47°12' W 001°37'0 0.0
2016-Jun-19 03:34N 47°12' W 001°37'0 0.0
2016-Jun-19 02:34N 47°12' W 001°37'0 0.0
2016-Jun-19 01:34N 47°12' W 001°37'0 0.0
2016-Jun-19 00:34N 47°12' W 001°37'0 0.0
2016-Jun-18 23:34N 47°12' W 001°37'0 0.0
2016-Jun-18 22:34N 47°12' W 001°37'0 0.0
2016-Jun-18 21:34N 47°12' W 001°37'0 0.0
2016-Jun-18 20:34N 47°12' W 001°37'0 0.0
2016-Jun-18 19:34N 47°12' W 001°37'0 0.0
2016-Jun-18 18:34N 47°12' W 001°37'0 0.0
2016-Jun-18 17:34N 47°12' W 001°37'0 0.0
2016-Jun-18 16:34N 47°12' W 001°37'0 0.0
2016-Jun-18 15:34N 47°12' W 001°37'0 0.0
2016-Jun-18 14:34N 47°12' W 001°37'0 0.0
2016-Jun-18 13:34N 47°12' W 001°37'0 0.0
2016-Jun-18 12:33N 47°12' W 001°37'0 0.0
2016-Jun-18 11:34N 47°12' W 001°37'0 0.0
2016-Jun-18 10:34N 47°12' W 001°37'0 0.0
2016-Jun-18 09:34N 47°12' W 001°37'0 0.0
2016-Jun-18 08:33N 47°12' W 001°37'0 0.0
2016-Jun-18 07:33N 47°12' W 001°37'0 0.0
2016-Jun-18 06:34N 47°12' W 001°37'0 0.0
2016-Jun-18 05:34N 47°12' W 001°37'0 0.0
2016-Jun-18 04:34N 47°12' W 001°37'0 0.0
2016-Jun-18 03:34N 47°12' W 001°37'0 0.0
2016-Jun-18 02:34N 47°12' W 001°37'0 0.0
2016-Jun-18 01:34N 47°12' W 001°37'0 0.0
2016-Jun-18 00:34N 47°12' W 001°37'0 0.0
2016-Jun-17 23:34N 47°12' W 001°37'0 0.0
2016-Jun-17 22:34N 47°12' W 001°37'0 0.0
2016-Jun-17 21:34N 47°12' W 001°37'0 0.0
2016-Jun-17 20:34N 47°12' W 001°37'0 0.0
2016-Jun-17 19:34N 47°12' W 001°37'0 0.0
2016-Jun-17 18:34N 47°12' W 001°37'0 0.0
2016-Jun-17 17:34N 47°12' W 001°37'1 0.7
2016-Jun-17 16:34N 47°12' W 001°38'0 0.1
2016-Jun-17 15:34N 47°12' W 001°38'0 0.0
2016-Jun-17 14:34N 47°12' W 001°38'5 5.5
2016-Jun-17 13:34N 47°12' W 001°46'10 9.9
2016-Jun-17 12:34N 47°17' W 001°59'1010.2
2016-Jun-17 11:34N 47°15' W 002°13'1110.7
2016-Jun-17 10:34N 47°06' W 002°21'1 1.0
2016-Jun-17 09:34N 47°05' W 002°21'0 0.1
2016-Jun-17 08:34N 47°05' W 002°21'1 0.9
2016-Jun-17 07:33N 47°06' W 002°21'1211.8
2016-Jun-17 06:34N 47°16' W 002°12'1211.9
2016-Jun-17 05:33N 47°17' W 001°55'1211.6
2016-Jun-17 04:33N 47°12' W 001°39'1 1.1
2016-Jun-17 03:33N 47°12' W 001°38'0 0.0
2016-Jun-17 02:33N 47°12' W 001°38'0 0.0
2016-Jun-17 01:33N 47°12' W 001°38'6 5.7
2016-Jun-17 00:33N 47°12' W 001°46'1010.3
2016-Jun-16 23:33N 47°17' W 001°60'1010.4
2016-Jun-16 22:33N 47°14' W 002°14'1010.2
2016-Jun-16 21:34N 47°05' W 002°21'0 0.5
2016-Jun-16 20:33N 47°05' W 002°21'0 0.1
2016-Jun-16 19:34N 47°05' W 002°21'0 0.3
2016-Jun-16 18:33N 47°05' W 002°20'0 0.4
2016-Jun-16 17:34N 47°05' W 002°21'1 0.7
2016-Jun-16 16:33N 47°05' W 002°21'1 0.6
2016-Jun-16 15:33N 47°05' W 002°22'1 0.7
2016-Jun-16 14:33N 47°05' W 002°20'0 0.4
2016-Jun-16 13:33N 47°05' W 002°20'1 1.3
2016-Jun-16 12:33N 47°05' W 002°22'0 0.0
2016-Jun-16 11:33N 47°05' W 002°22'0 0.0
2016-Jun-16 10:33N 47°05' W 002°22'0 0.2
2016-Jun-16 09:34N 47°05' W 002°22'0 0.5
2016-Jun-16 08:33N 47°05' W 002°21'1 0.6
2016-Jun-16 07:33N 47°05' W 002°20'2 2.5
2016-Jun-16 06:33N 47°08' W 002°20'10 9.7
2016-Jun-16 05:34N 47°16' W 002°12'1010.4
2016-Jun-16 04:33N 47°17' W 001°57'1010.0
2016-Jun-16 03:33N 47°12' W 001°43'4 3.8
2016-Jun-16 02:33N 47°12' W 001°38'0 0.0
2016-Jun-16 01:33N 47°12' W 001°38'0 0.0
2016-Jun-16 00:33N 47°12' W 001°38'8 7.5
2016-Jun-15 23:33N 47°13' W 001°49'1010.1
2016-Jun-15 22:33N 47°18' W 002°02'1010.3
2016-Jun-15 21:33N 47°14' W 002°16'10 9.8
2016-Jun-15 20:34N 47°05' W 002°21'0 0.3
2016-Jun-15 19:33N 47°05' W 002°21'0 0.1
2016-Jun-15 18:33N 47°05' W 002°21'4 3.9
2016-Jun-15 17:33N 47°09' W 002°20'10 9.6
2016-Jun-15 16:33N 47°16' W 002°11'3 3.4
2016-Jun-15 15:33N 47°18' W 002°07'0 0.0
2016-Jun-15 14:33N 47°18' W 002°07'0 0.0
2016-Jun-15 13:33N 47°18' W 002°07'3 2.7
2016-Jun-15 12:33N 47°17' W 002°10'1010.5
2016-Jun-15 11:33N 47°08' W 002°20'4 3.7
2016-Jun-15 10:33N 47°05' W 002°21'0 0.1
2016-Jun-15 09:32N 47°05' W 002°21'0 0.1
2016-Jun-15 08:31N 47°05' W 002°21'0 0.0
2016-Jun-15 07:32N 47°05' W 002°21'4 4.1
2016-Jun-15 06:33N 47°09' W 002°20'10 9.5
2016-Jun-15 05:33N 47°16' W 002°11'1111.0
2016-Jun-15 04:33N 47°17' W 001°55'1110.7
2016-Jun-15 03:33N 47°12' W 001°41'3 2.8
2016-Jun-15 02:33N 47°12' W 001°37'0 0.0
2016-Jun-15 01:33N 47°12' W 001°37'0 0.0
2016-Jun-15 00:33N 47°12' W 001°37'0 0.0
2016-Jun-14 23:33N 47°12' W 001°37'0 0.0
2016-Jun-14 22:33N 47°12' W 001°37'0 0.0
2016-Jun-14 21:33N 47°12' W 001°37'  
Track history (hours):
 
Tides and Currents Weather Stations Pressure Air Temp Water Temp Dewpoint Dewpoint Depression Visibility Wind Speed Wind Dir Waves Ship Positions

St Pierre

Last reported at 2016-Jun-24 21:33 UTC. Time now 2016-Jun-24 22:16 UTC.
Position N 47°12' W 002°17'.

Length 84 m; draft 5.8 m.

Type: Cargo ship. MMSI: 228024800.

Date/timePositionNaut miles runAvg speedWind from/ knotsBaromVisibWave heightAir tempDewpointWater temp
2016-Jun-24 21:33N 47°12' W 002°17'1111.4
2016-Jun-24 20:33N 47°18' W 002°03'1212.2
2016-Jun-24 19:33N 47°13' W 001°47'6 6.1
2016-Jun-24 18:33N 47°12' W 001°38'0 0.0
2016-Jun-24 17:32N 47°12' W 001°38'4 4.4
2016-Jun-24 16:33N 47°12' W 001°44'1211.4
2016-Jun-24 15:30N 47°17' W 002°00'1111.6
2016-Jun-24 14:32N 47°14' W 002°16'10 9.8
2016-Jun-24 13:33N 47°05' W 002°21'0 0.1
2016-Jun-24 12:34N 47°05' W 002°21'0 0.1
2016-Jun-24 11:34N 47°05' W 002°21'0 0.1
2016-Jun-24 10:33N 47°05' W 002°21'8 8.4
2016-Jun-24 09:34N 47°13' W 002°17'1111.0
2016-Jun-24 08:33N 47°18' W 002°03'1212.4
2016-Jun-24 07:34N 47°12' W 001°46'3 1.0
2016-Jun-24 04:34N 47°14' W 001°50'1211.7
2016-Jun-24 03:33N 47°18' W 002°06'1312.5
2016-Jun-24 02:33N 47°09' W 002°19'3 2.6
2016-Jun-24 01:33N 47°07' W 002°21'0 0.1
2016-Jun-24 00:34N 47°07' W 002°21'0 0.0
2016-Jun-23 23:33N 47°07' W 002°21'0 0.0
2016-Jun-23 22:32N 47°07' W 002°21'0 0.0
2016-Jun-23 21:33N 47°07' W 002°21'0 0.0
2016-Jun-23 20:33N 47°07' W 002°21'2 2.1
2016-Jun-23 19:33N 47°05' W 002°21'0 0.1
2016-Jun-23 18:33N 47°05' W 002°21'0 0.2
2016-Jun-23 17:33N 47°05' W 002°21'1 1.2
2016-Jun-23 16:33N 47°06' W 002°21'0 0.3
2016-Jun-23 15:33N 47°06' W 002°20'0 0.1
2016-Jun-23 14:33N 47°06' W 002°20'1 1.2
2016-Jun-23 13:34N 47°05' W 002°21'1 0.8
2016-Jun-23 12:33N 47°06' W 002°20'0 0.0
2016-Jun-23 11:34N 47°06' W 002°20'0 0.2
2016-Jun-23 10:33N 47°06' W 002°21'0 0.3
2016-Jun-23 09:33N 47°06' W 002°20'0 0.2
2016-Jun-23 08:33N 47°06' W 002°20'10 9.6
2016-Jun-23 07:33N 47°14' W 002°15'2210.9
2016-Jun-23 05:34N 47°12' W 001°43'3 3.4
2016-Jun-23 04:34N 47°12' W 001°38'0 0.0
2016-Jun-23 03:34N 47°12' W 001°38'0 0.0
2016-Jun-23 02:34N 47°12' W 001°38'0 0.0
2016-Jun-23 01:34N 47°12' W 001°38'0 0.0
2016-Jun-23 00:33N 47°12' W 001°38'0 0.0
2016-Jun-22 23:34N 47°12' W 001°38'0 0.0
2016-Jun-22 22:33N 47°12' W 001°38'0 0.0
2016-Jun-22 21:34N 47°12' W 001°38'0 0.0
2016-Jun-22 20:34N 47°12' W 001°38'0 0.0
2016-Jun-22 19:34N 47°12' W 001°38'0 0.0
2016-Jun-22 18:34N 47°12' W 001°38'7 7.4
2016-Jun-22 17:34N 47°13' W 001°49'1111.1
2016-Jun-22 16:34N 47°18' W 002°03'1211.7
2016-Jun-22 15:33N 47°11' W 002°18'7 7.1
2016-Jun-22 14:34N 47°05' W 002°21'0 0.2
2016-Jun-22 13:33N 47°05' W 002°21'0 0.2
2016-Jun-22 12:34N 47°05' W 002°21'0 0.2
2016-Jun-22 11:34N 47°05' W 002°21'9 9.5
2016-Jun-22 10:34N 47°10' W 002°33'1212.1
2016-Jun-22 09:34N 47°16' W 002°48'1312.9
2016-Jun-22 08:33N 47°22' W 003°05'1212.3
2016-Jun-22 07:34N 47°32' W 003°15'1211.9
2016-Jun-22 06:34N 47°43' W 003°22'2 2.2
2016-Jun-22 05:34N 47°45' W 003°19'0 0.0
2016-Jun-22 04:34N 47°45' W 003°19'2 2.0
2016-Jun-22 03:34N 47°44' W 003°22'4 4.2
2016-Jun-22 02:34N 47°40' W 003°24'4 4.2
2016-Jun-22 01:34N 47°37' W 003°19'9 8.6
2016-Jun-22 00:33N 47°29' W 003°13'1010.0
2016-Jun-21 23:34N 47°22' W 003°03'1110.6
2016-Jun-21 22:33N 47°16' W 002°50'1110.7
2016-Jun-21 21:34N 47°11' W 002°36'1010.5
2016-Jun-21 20:34N 47°06' W 002°23'2 1.7
2016-Jun-21 19:34N 47°05' W 002°21'0 0.1
2016-Jun-21 18:33N 47°05' W 002°21'0 0.1
2016-Jun-21 17:33N 47°05' W 002°21'7 6.8
2016-Jun-21 16:34N 47°11' W 002°18'1111.0
2016-Jun-21 15:33N 47°18' W 002°05'10 9.8
2016-Jun-21 14:33N 47°16' W 001°51'10 9.5
2016-Jun-21 13:33N 47°11' W 001°39'1 1.4
2016-Jun-21 12:34N 47°12' W 001°37'0 0.0
2016-Jun-21 11:34N 47°12' W 001°37'0 0.0
2016-Jun-21 10:34N 47°12' W 001°37'0 0.0
2016-Jun-21 09:34N 47°12' W 001°37'0 0.0
2016-Jun-21 08:34N 47°12' W 001°37'0 0.0
2016-Jun-21 07:34N 47°12' W 001°37'0 0.0
2016-Jun-21 06:34N 47°12' W 001°37'0 0.0
2016-Jun-21 04:33N 47°12' W 001°37'0 0.0
2016-Jun-21 03:34N 47°12' W 001°37'0 0.0
2016-Jun-21 02:34N 47°12' W 001°37'0 0.0
2016-Jun-21 01:34N 47°12' W 001°37'0 0.0
2016-Jun-21 00:34N 47°12' W 001°37'0 0.0
2016-Jun-20 23:34N 47°12' W 001°37'0 0.0
2016-Jun-20 22:34N 47°12' W 001°37'0 0.0
2016-Jun-20 21:34N 47°12' W 001°37'0 0.0
2016-Jun-20 20:33N 47°12' W 001°37'0 0.0
2016-Jun-20 19:34N 47°12' W 001°37'0 0.0
2016-Jun-20 18:34N 47°12' W 001°37'0 0.0
2016-Jun-20 17:34N 47°12' W 001°37'0 0.0
2016-Jun-20 16:34N 47°12' W 001°37'0 0.0
2016-Jun-20 15:34N 47°12' W 001°37'0 0.0
2016-Jun-20 14:34N 47°12' W 001°37'0 0.0
2016-Jun-20 13:34N 47°12' W 001°37'0 0.0
2016-Jun-20 12:33N 47°12' W 001°37'0 0.0
2016-Jun-20 11:33N 47°12' W 001°37'0 0.0
2016-Jun-20 10:34N 47°12' W 001°37'0 0.0
2016-Jun-20 09:33N 47°12' W 001°37'0 0.0
2016-Jun-20 08:34N 47°12' W 001°37'0 0.0
2016-Jun-20 07:34N 47°12' W 001°37'0 0.0
2016-Jun-20 06:34N 47°12' W 001°37'0 0.0
2016-Jun-20 05:34N 47°12' W 001°37'0 0.0
2016-Jun-20 04:34N 47°12' W 001°37'0 0.0
2016-Jun-20 03:34N 47°12' W 001°37'0 0.0
2016-Jun-20 02:34N 47°12' W 001°37'0 0.0
2016-Jun-20 01:34N 47°12' W 001°37'0 0.0
2016-Jun-20 00:34N 47°12' W 001°37'0 0.0
2016-Jun-19 23:34N 47°12' W 001°37'0 0.0
2016-Jun-19 22:34N 47°12' W 001°37'0 0.0
2016-Jun-19 21:34N 47°12' W 001°37'0 0.0
2016-Jun-19 20:34N 47°12' W 001°37'0 0.0
2016-Jun-19 19:33N 47°12' W 001°37'0 0.0
2016-Jun-19 18:34N 47°12' W 001°37'0 0.0
2016-Jun-19 17:34N 47°12' W 001°37'0 0.0
2016-Jun-19 16:34N 47°12' W 001°37'0 0.0
2016-Jun-19 15:34N 47°12' W 001°37'0 0.0
2016-Jun-19 14:34N 47°12' W 001°37'0 0.0
2016-Jun-19 13:34N 47°12' W 001°37'0 0.0
2016-Jun-19 12:34N 47°12' W 001°37'0 0.0
2016-Jun-19 11:33N 47°12' W 001°37'0 0.0
2016-Jun-19 10:34N 47°12' W 001°37'0 0.0
2016-Jun-19 09:34N 47°12' W 001°37'0 0.0
2016-Jun-19 08:34N 47°12' W 001°37'0 0.0
2016-Jun-19 07:34N 47°12' W 001°37'0 0.0
2016-Jun-19 06:34N 47°12' W 001°37'0 0.0
2016-Jun-19 05:34N 47°12' W 001°37'0 0.0
2016-Jun-19 04:34N 47°12' W 001°37'0 0.0
2016-Jun-19 03:34N 47°12' W 001°37'0 0.0
2016-Jun-19 02:34N 47°12' W 001°37'0 0.0
2016-Jun-19 01:34N 47°12' W 001°37'0 0.0
2016-Jun-19 00:34N 47°12' W 001°37'0 0.0
2016-Jun-18 23:34N 47°12' W 001°37'0 0.0
2016-Jun-18 22:34N 47°12' W 001°37'0 0.0
2016-Jun-18 21:34N 47°12' W 001°37'0 0.0
2016-Jun-18 20:34N 47°12' W 001°37'0 0.0
2016-Jun-18 19:34N 47°12' W 001°37'0 0.0
2016-Jun-18 18:34N 47°12' W 001°37'0 0.0
2016-Jun-18 17:34N 47°12' W 001°37'0 0.0
2016-Jun-18 16:34N 47°12' W 001°37'0 0.0
2016-Jun-18 15:34N 47°12' W 001°37'0 0.0
2016-Jun-18 14:34N 47°12' W 001°37'0 0.0
2016-Jun-18 13:34N 47°12' W 001°37'0 0.0
2016-Jun-18 12:33N 47°12' W 001°37'0 0.0
2016-Jun-18 11:34N 47°12' W 001°37'0 0.0
2016-Jun-18 10:34N 47°12' W 001°37'0 0.0
2016-Jun-18 09:34N 47°12' W 001°37'0 0.0
2016-Jun-18 08:33N 47°12' W 001°37'0 0.0
2016-Jun-18 07:33N 47°12' W 001°37'0 0.0
2016-Jun-18 06:34N 47°12' W 001°37'0 0.0
2016-Jun-18 05:34N 47°12' W 001°37'0 0.0
2016-Jun-18 04:34N 47°12' W 001°37'0 0.0
2016-Jun-18 03:34N 47°12' W 001°37'0 0.0
2016-Jun-18 02:34N 47°12' W 001°37'0 0.0
2016-Jun-18 01:34N 47°12' W 001°37'0 0.0
2016-Jun-18 00:34N 47°12' W 001°37'0 0.0
2016-Jun-17 23:34N 47°12' W 001°37'0 0.0
2016-Jun-17 22:34N 47°12' W 001°37'0 0.0
2016-Jun-17 21:34N 47°12' W 001°37'0 0.0
2016-Jun-17 20:34N 47°12' W 001°37'0 0.0
2016-Jun-17 19:34N 47°12' W 001°37'0 0.0
2016-Jun-17 18:34N 47°12' W 001°37'0 0.0
2016-Jun-17 17:34N 47°12' W 001°37'1 0.7
2016-Jun-17 16:34N 47°12' W 001°38'0 0.1
2016-Jun-17 15:34N 47°12' W 001°38'0 0.0
2016-Jun-17 14:34N 47°12' W 001°38'5 5.5
2016-Jun-17 13:34N 47°12' W 001°46'10 9.9
2016-Jun-17 12:34N 47°17' W 001°59'1010.2
2016-Jun-17 11:34N 47°15' W 002°13'1110.7
2016-Jun-17 10:34N 47°06' W 002°21'1 1.0
2016-Jun-17 09:34N 47°05' W 002°21'0 0.1
2016-Jun-17 08:34N 47°05' W 002°21'1 0.9
2016-Jun-17 07:33N 47°06' W 002°21'1211.8
2016-Jun-17 06:34N 47°16' W 002°12'1211.9
2016-Jun-17 05:33N 47°17' W 001°55'1211.6
2016-Jun-17 04:33N 47°12' W 001°39'1 1.1
2016-Jun-17 03:33N 47°12' W 001°38'0 0.0
2016-Jun-17 02:33N 47°12' W 001°38'0 0.0
2016-Jun-17 01:33N 47°12' W 001°38'6 5.7
2016-Jun-17 00:33N 47°12' W 001°46'1010.3
2016-Jun-16 23:33N 47°17' W 001°60'1010.4
2016-Jun-16 22:33N 47°14' W 002°14'1010.2
2016-Jun-16 21:34N 47°05' W 002°21'0 0.5
2016-Jun-16 20:33N 47°05' W 002°21'0 0.1
2016-Jun-16 19:34N 47°05' W 002°21'0 0.3
2016-Jun-16 18:33N 47°05' W 002°20'0 0.4
2016-Jun-16 17:34N 47°05' W 002°21'1 0.7
2016-Jun-16 16:33N 47°05' W 002°21'1 0.6
2016-Jun-16 15:33N 47°05' W 002°22'1 0.7
2016-Jun-16 14:33N 47°05' W 002°20'0 0.4
2016-Jun-16 13:33N 47°05' W 002°20'1 1.3
2016-Jun-16 12:33N 47°05' W 002°22'0 0.0
2016-Jun-16 11:33N 47°05' W 002°22'0 0.0
2016-Jun-16 10:33N 47°05' W 002°22'0 0.2
2016-Jun-16 09:34N 47°05' W 002°22'0 0.5
2016-Jun-16 08:33N 47°05' W 002°21'1 0.6
2016-Jun-16 07:33N 47°05' W 002°20'2 2.5
2016-Jun-16 06:33N 47°08' W 002°20'10 9.7
2016-Jun-16 05:34N 47°16' W 002°12'1010.4
2016-Jun-16 04:33N 47°17' W 001°57'1010.0
2016-Jun-16 03:33N 47°12' W 001°43'4 3.8
2016-Jun-16 02:33N 47°12' W 001°38'0 0.0
2016-Jun-16 01:33N 47°12' W 001°38'0 0.0
2016-Jun-16 00:33N 47°12' W 001°38'8 7.5
2016-Jun-15 23:33N 47°13' W 001°49'1010.1
2016-Jun-15 22:33N 47°18' W 002°02'1010.3
2016-Jun-15 21:33N 47°14' W 002°16'10 9.8
2016-Jun-15 20:34N 47°05' W 002°21'0 0.3
2016-Jun-15 19:33N 47°05' W 002°21'0 0.1
2016-Jun-15 18:33N 47°05' W 002°21'4 3.9
2016-Jun-15 17:33N 47°09' W 002°20'10 9.6
2016-Jun-15 16:33N 47°16' W 002°11'3 3.4
2016-Jun-15 15:33N 47°18' W 002°07'0 0.0
2016-Jun-15 14:33N 47°18' W 002°07'0 0.0
2016-Jun-15 13:33N 47°18' W 002°07'3 2.7
2016-Jun-15 12:33N 47°17' W 002°10'1010.5
2016-Jun-15 11:33N 47°08' W 002°20'4 3.7
2016-Jun-15 10:33N 47°05' W 002°21'0 0.1
2016-Jun-15 09:32N 47°05' W 002°21'0 0.1
2016-Jun-15 08:31N 47°05' W 002°21'0 0.0
2016-Jun-15 07:32N 47°05' W 002°21'4 4.1
2016-Jun-15 06:33N 47°09' W 002°20'10 9.5
2016-Jun-15 05:33N 47°16' W 002°11'1111.0
2016-Jun-15 04:33N 47°17' W 001°55'1110.7
2016-Jun-15 03:33N 47°12' W 001°41'3 2.8
2016-Jun-15 02:33N 47°12' W 001°37'0 0.0
2016-Jun-15 01:33N 47°12' W 001°37'0 0.0
2016-Jun-15 00:33N 47°12' W 001°37'0 0.0
2016-Jun-14 23:33N 47°12' W 001°37'0 0.0
2016-Jun-14 22:33N 47°12' W 001°37'0 0.0
2016-Jun-14 21:33N 47°12' W 001°37'  

Dump ship's entire track history